This demonstration page uses our WeatherBlox Daily Observations layout. Learn more.

41.55636, -103.73856

Hourly Observations for May 23, 2018

Temp ( °F °C ) Dew Point ( °F °C ) Humidity (%) Winds ( mph kmh ) Pressure ( in mb ) Visibility ( mi km ) Precip ( " mm )
12:53 am 00:53 Clear 59 15 57 13.9 93 93 NW 8 13 29.77 1008 10 16.09344 0 0
1:53 am 01:53 Clear 57 13.9 56 13.3 96 96 WSW 7 11 29.8 1009 10 16.09344 0 0
2:53 am 02:53 Clear 55 12.8 55 12.8 100 100 Calm 29.8 1009 10 16.09344 0 0
3:53 am 03:53 Clear 53 11.7 53 11.7 100 100 NNW 7 11 29.83 1010 10 16.09344 0 0
4:53 am 04:53 Clear 52 11.1 52 11.1 100 100 Calm 29.85 1011 10 16.09344 0 0
5:53 am 05:53 Sunny 51 10.6 51 10.6 100 100 WNW 5 7 29.85 1011 10 16.09344 0 0
6:53 am 06:53 Sunny 54 12.2 54 12.2 100 100 Calm 29.88 1012 10 16.09344 0 0
7:53 am 07:53 Sunny 56 13.3 56 13.3 100 100 NW 10 17 29.85 1011 10 16.09344 0 0
8:53 am 08:53 Sunny 60 15.6 57 13.9 90 90 NW 3 6 29.88 1012 10 16.09344 0 0
9:53 am 09:53 Sunny 66 18.9 59 15 78 78 Calm 29.85 1011 10 16.09344 0 0
10:53 am 10:53 Sunny 71 21.7 56 13.3 59 59 Calm 29.85 1011 10 16.09344 0 0
11:53 am 11:53 Sunny 74 23.3 55 12.8 52 52 N 3 6 29.83 1010 10 16.09344 0 0
12:53 pm 12:53 Sunny 77 25 53 11.7 43 43 SE 6 9 29.8 1009 10 16.09344 0 0
1:53 pm 13:53 Sunny 78 25.6 55 12.8 45 45 SE 10 17 29.8 1009 10 16.09344 0 0
2:53 pm 14:53 Sunny 79 26.1 56 13.3 45 45 ESE 14 22 29.8 1009 10 16.09344 0 0
3:53 pm 15:53 Sunny 80 26.7 58 14.4 47 47 ESE 13 20 29.8 1009 10 16.09344 0 0
4:53 pm 16:53 Sunny 76 24.4 58 14.4 54 54 ESE 10 17 29.8 1009 10 16.09344 0 0
5:50 pm 17:50 Sunny 79 26 57 14 48 48 SE 12 19 29.62 1003 10 16.09344 0 0
5:53 pm 17:53 Sunny 79 26.1 57 13.9 47 47 SE 13 20 29.77 1008 10 16.09344 0 0
6:53 pm 18:53 Sunny 75 23.9 57 13.9 54 54 SE 6 9 29.77 1008 10 16.09344 0 0
7:35 pm 19:35 Mostly Sunny 68 20 52 11.1 57 57 NW 10 17 29.74 1007 10 16.09344 0 0
7:53 pm 19:53 Sunny 67 19.4 51 10.6 57 57 N 13 20 29.83 1010 10 16.09344 0 0
8:53 pm 20:53 Clear 63 17.2 49 9.4 60 60 NNE 14 22 29.83 1010 10 16.09344 0 0
9:53 pm 21:53 Clear 59 15 50 10 72 72 NNW 7 11 29.85 1011 10 16.09344 0 0
10:53 pm 22:53 Clear 57 13.9 50 10 78 78 E 3 6 29.85 1011 10 16.09344 0 0
11:53 pm 23:53 Clear 56 13.3 50 10 81 81 SE 5 7 29.88 1012 10 16.09344 0 0

Powered by AerisWeather